sensor_id;sensor_type;location;lat;lon;timestamp;temperature;humidity
33761;DHT22;20084;47.912;19.044;2022-07-05T00:01:05;25.80;75.20
33761;DHT22;20084;47.912;19.044;2022-07-05T00:03:31;25.90;74.90
33761;DHT22;20084;47.912;19.044;2022-07-05T00:05:57;25.90;74.50
33761;DHT22;20084;47.912;19.044;2022-07-05T00:08:23;25.80;75.00
33761;DHT22;20084;47.912;19.044;2022-07-05T00:10:48;25.80;74.50
33761;DHT22;20084;47.912;19.044;2022-07-05T00:13:14;25.70;75.00
33761;DHT22;20084;47.912;19.044;2022-07-05T00:15:40;25.60;75.10
33761;DHT22;20084;47.912;19.044;2022-07-05T00:18:06;25.60;75.50
33761;DHT22;20084;47.912;19.044;2022-07-05T00:20:32;25.60;76.20
33761;DHT22;20084;47.912;19.044;2022-07-05T00:22:58;25.50;77.00
33761;DHT22;20084;47.912;19.044;2022-07-05T00:25:24;25.40;74.30
33761;DHT22;20084;47.912;19.044;2022-07-05T00:27:49;25.40;75.10
33761;DHT22;20084;47.912;19.044;2022-07-05T00:30:15;25.40;75.00
33761;DHT22;20084;47.912;19.044;2022-07-05T00:32:41;25.40;75.50
33761;DHT22;20084;47.912;19.044;2022-07-05T00:35:07;25.40;75.30
33761;DHT22;20084;47.912;19.044;2022-07-05T00:37:33;25.40;75.40
33761;DHT22;20084;47.912;19.044;2022-07-05T00:39:58;25.20;76.00
33761;DHT22;20084;47.912;19.044;2022-07-05T00:42:24;25.00;76.90
33761;DHT22;20084;47.912;19.044;2022-07-05T00:44:50;24.90;77.30
33761;DHT22;20084;47.912;19.044;2022-07-05T00:47:16;24.80;77.10
33761;DHT22;20084;47.912;19.044;2022-07-05T00:49:42;24.90;76.70
33761;DHT22;20084;47.912;19.044;2022-07-05T00:52:09;25.00;76.40
33761;DHT22;20084;47.912;19.044;2022-07-05T00:54:36;25.10;76.60
33761;DHT22;20084;47.912;19.044;2022-07-05T00:57:03;25.10;77.10
33761;DHT22;20084;47.912;19.044;2022-07-05T00:59:29;25.00;77.80
33761;DHT22;20084;47.912;19.044;2022-07-05T01:01:55;24.90;78.20
33761;DHT22;20084;47.912;19.044;2022-07-05T01:04:21;24.90;78.20
33761;DHT22;20084;47.912;19.044;2022-07-05T01:06:48;25.00;78.30
33761;DHT22;20084;47.912;19.044;2022-07-05T01:09:16;25.00;78.90
33761;DHT22;20084;47.912;19.044;2022-07-05T01:11:43;24.90;79.30
33761;DHT22;20084;47.912;19.044;2022-07-05T01:14:11;24.90;79.90
33761;DHT22;20084;47.912;19.044;2022-07-05T01:16:38;24.70;80.80
33761;DHT22;20084;47.912;19.044;2022-07-05T01:19:06;24.60;81.70
33761;DHT22;20084;47.912;19.044;2022-07-05T01:21:42;24.40;83.10
33761;DHT22;20084;47.912;19.044;2022-07-05T01:24:10;24.20;83.70
33761;DHT22;20084;47.912;19.044;2022-07-05T01:26:37;24.20;84.00
33761;DHT22;20084;47.912;19.044;2022-07-05T01:29:03;24.20;84.50
33761;DHT22;20084;47.912;19.044;2022-07-05T01:31:29;24.30;84.10
33761;DHT22;20084;47.912;19.044;2022-07-05T01:33:55;24.30;84.40
33761;DHT22;20084;47.912;19.044;2022-07-05T01:36:20;24.40;84.70
33761;DHT22;20084;47.912;19.044;2022-07-05T01:38:46;24.40;85.00
33761;DHT22;20084;47.912;19.044;2022-07-05T01:41:12;24.40;85.30
33761;DHT22;20084;47.912;19.044;2022-07-05T01:43:38;24.30;85.90
33761;DHT22;20084;47.912;19.044;2022-07-05T01:46:05;24.40;85.90
33761;DHT22;20084;47.912;19.044;2022-07-05T01:48:33;24.40;85.80
33761;DHT22;20084;47.912;19.044;2022-07-05T01:51:09;24.50;85.50
33761;DHT22;20084;47.912;19.044;2022-07-05T01:53:37;24.60;86.30
33761;DHT22;20084;47.912;19.044;2022-07-05T01:56:04;24.60;86.40
33761;DHT22;20084;47.912;19.044;2022-07-05T01:58:31;24.60;86.50
33761;DHT22;20084;47.912;19.044;2022-07-05T02:00:58;24.60;86.90
33761;DHT22;20084;47.912;19.044;2022-07-05T02:03:25;24.60;87.20
33761;DHT22;20084;47.912;19.044;2022-07-05T02:05:51;24.60;87.20
33761;DHT22;20084;47.912;19.044;2022-07-05T02:08:18;24.50;87.80
33761;DHT22;20084;47.912;19.044;2022-07-05T02:10:44;24.40;88.20
33761;DHT22;20084;47.912;19.044;2022-07-05T02:13:10;24.40;88.70
33761;DHT22;20084;47.912;19.044;2022-07-05T02:15:39;24.40;87.70
33761;DHT22;20084;47.912;19.044;2022-07-05T02:18:06;24.30;87.60
33761;DHT22;20084;47.912;19.044;2022-07-05T02:20:33;24.30;87.30
33761;DHT22;20084;47.912;19.044;2022-07-05T02:22:59;24.30;83.50
33761;DHT22;20084;47.912;19.044;2022-07-05T02:25:24;24.50;82.40
33761;DHT22;20084;47.912;19.044;2022-07-05T02:27:51;24.70;80.60
33761;DHT22;20084;47.912;19.044;2022-07-05T02:30:18;24.90;82.20
33761;DHT22;20084;47.912;19.044;2022-07-05T02:32:43;24.90;82.20
33761;DHT22;20084;47.912;19.044;2022-07-05T02:35:10;24.90;83.20
33761;DHT22;20084;47.912;19.044;2022-07-05T02:37:37;24.90;83.00
33761;DHT22;20084;47.912;19.044;2022-07-05T02:40:11;24.90;81.10
33761;DHT22;20084;47.912;19.044;2022-07-05T02:42:38;24.90;81.20
33761;DHT22;20084;47.912;19.044;2022-07-05T02:45:04;25.00;81.20
33761;DHT22;20084;47.912;19.044;2022-07-05T02:47:31;25.10;81.40
33761;DHT22;20084;47.912;19.044;2022-07-05T02:49:58;24.90;83.80
33761;DHT22;20084;47.912;19.044;2022-07-05T02:52:24;24.70;86.30
33761;DHT22;20084;47.912;19.044;2022-07-05T02:54:50;24.60;87.00
33761;DHT22;20084;47.912;19.044;2022-07-05T02:57:16;24.60;87.30
33761;DHT22;20084;47.912;19.044;2022-07-05T02:59:41;24.50;87.40
33761;DHT22;20084;47.912;19.044;2022-07-05T03:02:07;24.50;88.00
33761;DHT22;20084;47.912;19.044;2022-07-05T03:04:33;24.40;89.20
33761;DHT22;20084;47.912;19.044;2022-07-05T03:06:58;24.30;89.90
33761;DHT22;20084;47.912;19.044;2022-07-05T03:09:24;24.20;90.20
33761;DHT22;20084;47.912;19.044;2022-07-05T03:11:49;24.30;90.50
33761;DHT22;20084;47.912;19.044;2022-07-05T03:14:15;24.30;90.20
33761;DHT22;20084;47.912;19.044;2022-07-05T03:16:41;24.20;90.20
33761;DHT22;20084;47.912;19.044;2022-07-05T03:19:07;24.10;90.60
33761;DHT22;20084;47.912;19.044;2022-07-05T03:21:33;24.10;91.20
33761;DHT22;20084;47.912;19.044;2022-07-05T03:23:59;24.10;91.70
33761;DHT22;20084;47.912;19.044;2022-07-05T03:26:25;24.10;91.50
33761;DHT22;20084;47.912;19.044;2022-07-05T03:28:51;24.10;91.40
33761;DHT22;20084;47.912;19.044;2022-07-05T03:31:16;24.10;91.40
33761;DHT22;20084;47.912;19.044;2022-07-05T03:33:42;24.10;91.50
33761;DHT22;20084;47.912;19.044;2022-07-05T03:36:08;24.20;91.60
33761;DHT22;20084;47.912;19.044;2022-07-05T03:38:34;24.20;91.50
33761;DHT22;20084;47.912;19.044;2022-07-05T03:40:59;24.30;91.90
33761;DHT22;20084;47.912;19.044;2022-07-05T03:43:25;24.10;92.20
33761;DHT22;20084;47.912;19.044;2022-07-05T03:45:51;24.10;92.50
33761;DHT22;20084;47.912;19.044;2022-07-05T03:48:16;24.10;92.70
33761;DHT22;20084;47.912;19.044;2022-07-05T03:50:42;24.00;92.80
33761;DHT22;20084;47.912;19.044;2022-07-05T03:53:08;23.90;93.00
33761;DHT22;20084;47.912;19.044;2022-07-05T03:55:33;23.90;93.40
33761;DHT22;20084;47.912;19.044;2022-07-05T03:57:59;23.80;93.70
33761;DHT22;20084;47.912;19.044;2022-07-05T04:00:24;23.90;94.00
33761;DHT22;20084;47.912;19.044;2022-07-05T04:02:50;23.90;94.00
33761;DHT22;20084;47.912;19.044;2022-07-05T04:05:16;23.90;94.10
33761;DHT22;20084;47.912;19.044;2022-07-05T04:07:55;23.90;94.40
33761;DHT22;20084;47.912;19.044;2022-07-05T04:10:21;24.00;94.70
33761;DHT22;20084;47.912;19.044;2022-07-05T04:12:47;24.10;94.10
33761;DHT22;20084;47.912;19.044;2022-07-05T04:15:14;24.10;94.30
33761;DHT22;20084;47.912;19.044;2022-07-05T04:17:54;24.10;94.70
33761;DHT22;20084;47.912;19.044;2022-07-05T04:20:21;24.00;95.10
33761;DHT22;20084;47.912;19.044;2022-07-05T04:22:48;24.00;95.00
33761;DHT22;20084;47.912;19.044;2022-07-05T04:25:14;24.00;95.50
33761;DHT22;20084;47.912;19.044;2022-07-05T04:27:44;24.00;96.10
33761;DHT22;20084;47.912;19.044;2022-07-05T04:30:10;23.90;96.00
33761;DHT22;20084;47.912;19.044;2022-07-05T04:32:36;23.90;96.40
33761;DHT22;20084;47.912;19.044;2022-07-05T04:35:01;24.00;96.20
33761;DHT22;20084;47.912;19.044;2022-07-05T04:37:27;24.10;95.80
33761;DHT22;20084;47.912;19.044;2022-07-05T04:39:53;24.20;95.40
33761;DHT22;20084;47.912;19.044;2022-07-05T04:42:19;24.20;95.40
33761;DHT22;20084;47.912;19.044;2022-07-05T04:44:44;24.30;96.10
33761;DHT22;20084;47.912;19.044;2022-07-05T04:47:10;24.30;96.30
33761;DHT22;20084;47.912;19.044;2022-07-05T04:49:36;24.40;96.10
33761;DHT22;20084;47.912;19.044;2022-07-05T04:52:01;24.40;96.10
33761;DHT22;20084;47.912;19.044;2022-07-05T04:54:27;24.50;95.50
33761;DHT22;20084;47.912;19.044;2022-07-05T04:56:52;24.50;95.70
33761;DHT22;20084;47.912;19.044;2022-07-05T04:59:18;24.50;96.00
33761;DHT22;20084;47.912;19.044;2022-07-05T05:01:44;24.60;96.60
33761;DHT22;20084;47.912;19.044;2022-07-05T05:04:10;24.60;96.70
33761;DHT22;20084;47.912;19.044;2022-07-05T05:06:35;24.60;96.10
33761;DHT22;20084;47.912;19.044;2022-07-05T05:09:01;24.60;96.10
33761;DHT22;20084;47.912;19.044;2022-07-05T05:11:27;24.70;96.00
33761;DHT22;20084;47.912;19.044;2022-07-05T05:13:52;24.70;96.60
33761;DHT22;20084;47.912;19.044;2022-07-05T05:16:18;24.40;96.70
33761;DHT22;20084;47.912;19.044;2022-07-05T05:18:44;24.40;96.80
33761;DHT22;20084;47.912;19.044;2022-07-05T05:21:09;24.40;97.00
33761;DHT22;20084;47.912;19.044;2022-07-05T05:23:35;24.40;97.00
33761;DHT22;20084;47.912;19.044;2022-07-05T05:26:01;24.50;96.60
33761;DHT22;20084;47.912;19.044;2022-07-05T05:28:26;24.60;97.30
33761;DHT22;20084;47.912;19.044;2022-07-05T05:30:52;24.60;97.20
33761;DHT22;20084;47.912;19.044;2022-07-05T05:33:18;24.70;97.80
33761;DHT22;20084;47.912;19.044;2022-07-05T05:35:43;24.80;97.70
33761;DHT22;20084;47.912;19.044;2022-07-05T05:38:09;24.80;96.90
33761;DHT22;20084;47.912;19.044;2022-07-05T05:40:35;24.90;96.70
33761;DHT22;20084;47.912;19.044;2022-07-05T05:43:03;24.90;96.10
33761;DHT22;20084;47.912;19.044;2022-07-05T05:45:28;25.00;95.80
33761;DHT22;20084;47.912;19.044;2022-07-05T05:47:56;25.00;95.40
33761;DHT22;20084;47.912;19.044;2022-07-05T05:50:24;25.10;96.40
33761;DHT22;20084;47.912;19.044;2022-07-05T05:52:50;25.10;97.00
33761;DHT22;20084;47.912;19.044;2022-07-05T05:55:17;25.10;97.50
33761;DHT22;20084;47.912;19.044;2022-07-05T05:57:43;25.00;98.20
33761;DHT22;20084;47.912;19.044;2022-07-05T06:00:09;25.00;98.50
33761;DHT22;20084;47.912;19.044;2022-07-05T06:02:35;24.90;98.50
33761;DHT22;20084;47.912;19.044;2022-07-05T06:05:00;24.90;98.50
33761;DHT22;20084;47.912;19.044;2022-07-05T06:07:26;24.80;98.20
33761;DHT22;20084;47.912;19.044;2022-07-05T06:09:52;24.80;96.80
33761;DHT22;20084;47.912;19.044;2022-07-05T06:12:18;24.80;95.10
33761;DHT22;20084;47.912;19.044;2022-07-05T06:14:43;24.80;94.70
33761;DHT22;20084;47.912;19.044;2022-07-05T06:17:09;24.70;94.20
33761;DHT22;20084;47.912;19.044;2022-07-05T06:19:35;24.70;94.20
33761;DHT22;20084;47.912;19.044;2022-07-05T06:22:00;24.70;94.10
33761;DHT22;20084;47.912;19.044;2022-07-05T06:24:26;24.60;94.00
33761;DHT22;20084;47.912;19.044;2022-07-05T06:26:52;24.60;93.10
33761;DHT22;20084;47.912;19.044;2022-07-05T06:29:17;24.60;93.10
33761;DHT22;20084;47.912;19.044;2022-07-05T06:31:43;24.60;92.70
33761;DHT22;20084;47.912;19.044;2022-07-05T06:34:09;24.60;92.10
33761;DHT22;20084;47.912;19.044;2022-07-05T06:36:34;24.70;92.10
33761;DHT22;20084;47.912;19.044;2022-07-05T06:39:00;24.70;91.70
33761;DHT22;20084;47.912;19.044;2022-07-05T06:41:26;24.70;91.40
33761;DHT22;20084;47.912;19.044;2022-07-05T06:43:52;24.70;92.00
33761;DHT22;20084;47.912;19.044;2022-07-05T06:46:18;24.80;91.80
33761;DHT22;20084;47.912;19.044;2022-07-05T06:48:44;24.80;91.90
33761;DHT22;20084;47.912;19.044;2022-07-05T06:51:09;24.90;91.60
33761;DHT22;20084;47.912;19.044;2022-07-05T06:53:36;24.90;92.00
33761;DHT22;20084;47.912;19.044;2022-07-05T06:56:01;24.90;91.90
33761;DHT22;20084;47.912;19.044;2022-07-05T06:58:27;25.00;92.10
33761;DHT22;20084;47.912;19.044;2022-07-05T07:00:53;24.90;91.80
33761;DHT22;20084;47.912;19.044;2022-07-05T07:03:18;25.00;91.60
33761;DHT22;20084;47.912;19.044;2022-07-05T07:05:44;25.00;92.00
33761;DHT22;20084;47.912;19.044;2022-07-05T07:08:10;24.90;91.10
33761;DHT22;20084;47.912;19.044;2022-07-05T07:10:54;24.90;90.70
33761;DHT22;20084;47.912;19.044;2022-07-05T07:13:20;24.90;91.50
33761;DHT22;20084;47.912;19.044;2022-07-05T07:15:45;24.90;91.90
33761;DHT22;20084;47.912;19.044;2022-07-05T07:18:13;25.00;91.80
33761;DHT22;20084;47.912;19.044;2022-07-05T07:20:39;25.10;91.80
33761;DHT22;20084;47.912;19.044;2022-07-05T07:23:05;25.20;91.70
33761;DHT22;20084;47.912;19.044;2022-07-05T07:25:30;25.10;91.40
33761;DHT22;20084;47.912;19.044;2022-07-05T07:27:56;25.10;92.00
33761;DHT22;20084;47.912;19.044;2022-07-05T07:30:24;25.10;92.50
33761;DHT22;20084;47.912;19.044;2022-07-05T07:32:50;25.10;92.40
33761;DHT22;20084;47.912;19.044;2022-07-05T07:35:16;25.10;92.40
33761;DHT22;20084;47.912;19.044;2022-07-05T07:37:42;25.10;92.40
33761;DHT22;20084;47.912;19.044;2022-07-05T07:40:08;25.20;92.30
33761;DHT22;20084;47.912;19.044;2022-07-05T07:42:34;25.10;91.70
33761;DHT22;20084;47.912;19.044;2022-07-05T07:45:00;25.20;92.10
33761;DHT22;20084;47.912;19.044;2022-07-05T07:47:29;25.10;92.00
33761;DHT22;20084;47.912;19.044;2022-07-05T07:49:55;25.10;91.70
33761;DHT22;20084;47.912;19.044;2022-07-05T07:52:21;25.10;92.00
33761;DHT22;20084;47.912;19.044;2022-07-05T07:54:46;25.10;91.50
33761;DHT22;20084;47.912;19.044;2022-07-05T07:57:12;25.10;91.70
33761;DHT22;20084;47.912;19.044;2022-07-05T07:59:38;25.00;91.70
33761;DHT22;20084;47.912;19.044;2022-07-05T08:02:03;24.90;91.70
33761;DHT22;20084;47.912;19.044;2022-07-05T08:04:29;24.90;91.50
33761;DHT22;20084;47.912;19.044;2022-07-05T08:06:55;24.90;91.80
33761;DHT22;20084;47.912;19.044;2022-07-05T08:09:20;24.90;91.60
33761;DHT22;20084;47.912;19.044;2022-07-05T08:11:47;24.90;91.70
33761;DHT22;20084;47.912;19.044;2022-07-05T08:14:17;24.90;91.30
33761;DHT22;20084;47.912;19.044;2022-07-05T08:16:43;24.90;91.30
33761;DHT22;20084;47.912;19.044;2022-07-05T08:19:09;24.90;91.80
33761;DHT22;20084;47.912;19.044;2022-07-05T08:21:53;25.00;91.60
33761;DHT22;20084;47.912;19.044;2022-07-05T08:24:18;25.10;91.80
33761;DHT22;20084;47.912;19.044;2022-07-05T08:26:44;25.20;91.50
33761;DHT22;20084;47.912;19.044;2022-07-05T08:29:12;25.40;91.30
33761;DHT22;20084;47.912;19.044;2022-07-05T08:31:44;25.50;91.20
33761;DHT22;20084;47.912;19.044;2022-07-05T08:34:10;25.60;91.00
33761;DHT22;20084;47.912;19.044;2022-07-05T08:36:36;25.80;90.40
33761;DHT22;20084;47.912;19.044;2022-07-05T08:39:03;25.80;90.40
33761;DHT22;20084;47.912;19.044;2022-07-05T08:41:29;26.00;89.60
33761;DHT22;20084;47.912;19.044;2022-07-05T08:43:58;26.10;88.30
33761;DHT22;20084;47.912;19.044;2022-07-05T08:46:25;26.10;88.70
33761;DHT22;20084;47.912;19.044;2022-07-05T08:48:53;26.20;90.00
33761;DHT22;20084;47.912;19.044;2022-07-05T08:51:21;26.30;88.40
33761;DHT22;20084;47.912;19.044;2022-07-05T08:53:49;26.20;86.60
33761;DHT22;20084;47.912;19.044;2022-07-05T08:56:15;26.30;87.10
33761;DHT22;20084;47.912;19.044;2022-07-05T08:58:41;26.30;87.30
33761;DHT22;20084;47.912;19.044;2022-07-05T09:01:08;26.40;87.40
33761;DHT22;20084;47.912;19.044;2022-07-05T09:03:48;26.50;87.40
33761;DHT22;20084;47.912;19.044;2022-07-05T09:06:36;26.60;86.60
33761;DHT22;20084;47.912;19.044;2022-07-05T09:09:03;26.50;84.70
33761;DHT22;20084;47.912;19.044;2022-07-05T09:11:40;26.60;85.40
33761;DHT22;20084;47.912;19.044;2022-07-05T09:14:28;26.70;86.10
33761;DHT22;20084;47.912;19.044;2022-07-05T09:16:53;26.60;84.80
33761;DHT22;20084;47.912;19.044;2022-07-05T09:19:19;26.60;84.80
33761;DHT22;20084;47.912;19.044;2022-07-05T09:21:45;26.70;85.30
33761;DHT22;20084;47.912;19.044;2022-07-05T09:24:11;26.60;86.10
33761;DHT22;20084;47.912;19.044;2022-07-05T09:26:41;26.70;86.60
33761;DHT22;20084;47.912;19.044;2022-07-05T09:29:16;26.70;85.90
33761;DHT22;20084;47.912;19.044;2022-07-05T09:31:47;26.70;83.90
33761;DHT22;20084;47.912;19.044;2022-07-05T09:34:18;26.70;84.40
33761;DHT22;20084;47.912;19.044;2022-07-05T09:37:01;26.70;85.80
33761;DHT22;20084;47.912;19.044;2022-07-05T09:42:18;26.90;83.20
33761;DHT22;20084;47.912;19.044;2022-07-05T09:44:52;27.00;83.70
33761;DHT22;20084;47.912;19.044;2022-07-05T09:47:21;26.90;81.40
33761;DHT22;20084;47.912;19.044;2022-07-05T09:49:47;26.90;80.60
33761;DHT22;20084;47.912;19.044;2022-07-05T09:52:34;26.70;80.80
33761;DHT22;20084;47.912;19.044;2022-07-05T09:55:11;26.70;81.90
33761;DHT22;20084;47.912;19.044;2022-07-05T09:57:38;26.60;80.90
33761;DHT22;20084;47.912;19.044;2022-07-05T10:00:16;26.50;82.30
33761;DHT22;20084;47.912;19.044;2022-07-05T10:02:46;26.50;82.00
33761;DHT22;20084;47.912;19.044;2022-07-05T10:05:32;26.60;83.30
33761;DHT22;20084;47.912;19.044;2022-07-05T10:07:59;26.70;82.30
33761;DHT22;20084;47.912;19.044;2022-07-05T10:10:32;26.70;83.50
33761;DHT22;20084;47.912;19.044;2022-07-05T10:12:59;26.60;82.30
33761;DHT22;20084;47.912;19.044;2022-07-05T10:15:26;26.60;83.40
33761;DHT22;20084;47.912;19.044;2022-07-05T10:18:07;26.50;83.70
33761;DHT22;20084;47.912;19.044;2022-07-05T10:23:04;26.30;85.40
33761;DHT22;20084;47.912;19.044;2022-07-05T10:25:30;26.10;85.50
33761;DHT22;20084;47.912;19.044;2022-07-05T10:27:57;25.90;86.00
33761;DHT22;20084;47.912;19.044;2022-07-05T10:30:24;25.70;87.50
33761;DHT22;20084;47.912;19.044;2022-07-05T10:32:50;25.60;87.60
33761;DHT22;20084;47.912;19.044;2022-07-05T10:35:17;25.60;89.00
33761;DHT22;20084;47.912;19.044;2022-07-05T10:37:43;25.50;88.60
33761;DHT22;20084;47.912;19.044;2022-07-05T10:40:10;25.50;90.20
33761;DHT22;20084;47.912;19.044;2022-07-05T10:42:41;25.40;90.40
33761;DHT22;20084;47.912;19.044;2022-07-05T10:48:20;25.20;90.30
33761;DHT22;20084;47.912;19.044;2022-07-05T10:51:00;25.10;90.60
33761;DHT22;20084;47.912;19.044;2022-07-05T10:56:20;24.70;92.10
33761;DHT22;20084;47.912;19.044;2022-07-05T10:58:47;24.40;92.60
33761;DHT22;20084;47.912;19.044;2022-07-05T11:03:50;24.00;92.70
33761;DHT22;20084;47.912;19.044;2022-07-05T11:06:25;24.00;92.70
33761;DHT22;20084;47.912;19.044;2022-07-05T11:11:29;24.00;94.80
33761;DHT22;20084;47.912;19.044;2022-07-05T11:13:55;23.80;95.50
33761;DHT22;20084;47.912;19.044;2022-07-05T11:16:25;23.70;96.70
33761;DHT22;20084;47.912;19.044;2022-07-05T11:18:54;23.70;98.60
33761;DHT22;20084;47.912;19.044;2022-07-05T11:21:29;23.20;99.60
33761;DHT22;20084;47.912;19.044;2022-07-05T11:24:25;23.00;99.90
33761;DHT22;20084;47.912;19.044;2022-07-05T11:26:51;23.00;99.50
33761;DHT22;20084;47.912;19.044;2022-07-05T11:29:40;23.10;99.80
33761;DHT22;20084;47.912;19.044;2022-07-05T11:32:08;23.20;99.90
33761;DHT22;20084;47.912;19.044;2022-07-05T11:34:36;23.10;98.30
33761;DHT22;20084;47.912;19.044;2022-07-05T11:39:44;23.10;97.40
33761;DHT22;20084;47.912;19.044;2022-07-05T11:42:11;23.10;97.40
33761;DHT22;20084;47.912;19.044;2022-07-05T11:44:44;23.10;97.60
33761;DHT22;20084;47.912;19.044;2022-07-05T11:47:18;23.00;97.10
33761;DHT22;20084;47.912;19.044;2022-07-05T11:49:55;23.00;97.90
33761;DHT22;20084;47.912;19.044;2022-07-05T11:52:28;22.90;97.70
33761;DHT22;20084;47.912;19.044;2022-07-05T11:54:56;22.70;98.00
33761;DHT22;20084;47.912;19.044;2022-07-05T11:57:22;22.60;99.90
33761;DHT22;20084;47.912;19.044;2022-07-05T11:59:49;22.60;99.90
33761;DHT22;20084;47.912;19.044;2022-07-05T12:02:15;22.50;99.90
33761;DHT22;20084;47.912;19.044;2022-07-05T12:04:47;22.60;99.90
33761;DHT22;20084;47.912;19.044;2022-07-05T12:07:30;22.60;99.90
33761;DHT22;20084;47.912;19.044;2022-07-05T12:09:57;22.60;99.90
33761;DHT22;20084;47.912;19.044;2022-07-05T12:12:41;22.60;99.90
33761;DHT22;20084;47.912;19.044;2022-07-05T12:15:19;22.50;99.90
33761;DHT22;20084;47.912;19.044;2022-07-05T12:17:47;22.50;99.90
33761;DHT22;20084;47.912;19.044;2022-07-05T12:20:19;22.50;99.90
33761;DHT22;20084;47.912;19.044;2022-07-05T12:22:45;22.60;99.90
33761;DHT22;20084;47.912;19.044;2022-07-05T12:25:22;22.60;99.90
33761;DHT22;20084;47.912;19.044;2022-07-05T12:27:50;22.50;99.90
33761;DHT22;20084;47.912;19.044;2022-07-05T12:30:17;22.50;99.90
33761;DHT22;20084;47.912;19.044;2022-07-05T12:33:05;22.40;99.90
33761;DHT22;20084;47.912;19.044;2022-07-05T12:35:44;22.40;99.90
33761;DHT22;20084;47.912;19.044;2022-07-05T12:38:15;22.30;99.90
33761;DHT22;20084;47.912;19.044;2022-07-05T12:40:43;22.10;99.90
33761;DHT22;20084;47.912;19.044;2022-07-05T12:43:12;22.10;99.90
33761;DHT22;20084;47.912;19.044;2022-07-05T12:45:39;22.20;99.90
33761;DHT22;20084;47.912;19.044;2022-07-05T12:48:07;22.20;99.90
33761;DHT22;20084;47.912;19.044;2022-07-05T12:50:50;22.30;99.90
33761;DHT22;20084;47.912;19.044;2022-07-05T12:53:17;22.30;99.90
33761;DHT22;20084;47.912;19.044;2022-07-05T12:56:06;22.40;99.90
33761;DHT22;20084;47.912;19.044;2022-07-05T12:58:56;22.40;99.90
33761;DHT22;20084;47.912;19.044;2022-07-05T13:01:29;22.60;99.90
33761;DHT22;20084;47.912;19.044;2022-07-05T13:04:03;22.60;99.90
33761;DHT22;20084;47.912;19.044;2022-07-05T13:09:07;22.50;99.90
33761;DHT22;20084;47.912;19.044;2022-07-05T13:11:33;22.50;99.90
33761;DHT22;20084;47.912;19.044;2022-07-05T13:13:58;22.50;99.90
33761;DHT22;20084;47.912;19.044;2022-07-05T13:16:24;22.50;99.90
33761;DHT22;20084;47.912;19.044;2022-07-05T13:18:49;22.60;99.90
33761;DHT22;20084;47.912;19.044;2022-07-05T13:21:15;22.80;99.90
33761;DHT22;20084;47.912;19.044;2022-07-05T13:23:41;22.80;99.90
33761;DHT22;20084;47.912;19.044;2022-07-05T13:26:07;22.90;99.90
33761;DHT22;20084;47.912;19.044;2022-07-05T13:28:32;22.90;99.90
33761;DHT22;20084;47.912;19.044;2022-07-05T13:30:58;22.90;99.90
33761;DHT22;20084;47.912;19.044;2022-07-05T13:33:24;23.00;99.90
33761;DHT22;20084;47.912;19.044;2022-07-05T13:35:49;23.10;99.90
33761;DHT22;20084;47.912;19.044;2022-07-05T13:38:15;23.00;99.90
33761;DHT22;20084;47.912;19.044;2022-07-05T13:40:41;23.10;99.90
33761;DHT22;20084;47.912;19.044;2022-07-05T13:43:06;23.10;99.90
33761;DHT22;20084;47.912;19.044;2022-07-05T13:45:32;23.20;99.90
33761;DHT22;20084;47.912;19.044;2022-07-05T13:47:57;23.30;99.90
33761;DHT22;20084;47.912;19.044;2022-07-05T13:50:23;23.30;99.90
33761;DHT22;20084;47.912;19.044;2022-07-05T13:52:59;23.30;99.90
33761;DHT22;20084;47.912;19.044;2022-07-05T13:55:24;23.30;99.90
33761;DHT22;20084;47.912;19.044;2022-07-05T13:57:50;23.20;99.90
33761;DHT22;20084;47.912;19.044;2022-07-05T14:00:16;23.30;99.90
33761;DHT22;20084;47.912;19.044;2022-07-05T14:02:43;23.20;99.90
33761;DHT22;20084;47.912;19.044;2022-07-05T14:05:09;23.20;99.90
33761;DHT22;20084;47.912;19.044;2022-07-05T14:07:35;23.30;99.90
33761;DHT22;20084;47.912;19.044;2022-07-05T14:10:02;23.30;99.90
33761;DHT22;20084;47.912;19.044;2022-07-05T14:12:28;23.40;99.90
33761;DHT22;20084;47.912;19.044;2022-07-05T14:14:54;23.40;99.90
33761;DHT22;20084;47.912;19.044;2022-07-05T14:17:20;23.50;99.90
33761;DHT22;20084;47.912;19.044;2022-07-05T14:19:45;23.50;99.90
33761;DHT22;20084;47.912;19.044;2022-07-05T14:22:11;23.40;99.90
33761;DHT22;20084;47.912;19.044;2022-07-05T14:24:36;23.30;99.90
33761;DHT22;20084;47.912;19.044;2022-07-05T14:27:02;23.40;99.90
33761;DHT22;20084;47.912;19.044;2022-07-05T14:29:32;23.30;99.90
33761;DHT22;20084;47.912;19.044;2022-07-05T14:31:58;23.20;99.90
33761;DHT22;20084;47.912;19.044;2022-07-05T14:34:24;23.10;99.90
33761;DHT22;20084;47.912;19.044;2022-07-05T14:36:49;23.30;99.90
33761;DHT22;20084;47.912;19.044;2022-07-05T14:39:15;23.30;99.90
33761;DHT22;20084;47.912;19.044;2022-07-05T14:41:41;23.40;99.90
33761;DHT22;20084;47.912;19.044;2022-07-05T14:44:08;23.50;99.90
33761;DHT22;20084;47.912;19.044;2022-07-05T14:46:34;23.50;99.90
33761;DHT22;20084;47.912;19.044;2022-07-05T14:49:00;23.50;99.90
33761;DHT22;20084;47.912;19.044;2022-07-05T14:51:25;23.50;99.90
33761;DHT22;20084;47.912;19.044;2022-07-05T14:53:51;23.40;99.90
33761;DHT22;20084;47.912;19.044;2022-07-05T14:56:17;23.30;99.90
33761;DHT22;20084;47.912;19.044;2022-07-05T14:58:43;23.30;99.90
33761;DHT22;20084;47.912;19.044;2022-07-05T15:01:10;23.40;99.90
33761;DHT22;20084;47.912;19.044;2022-07-05T15:03:35;23.30;99.90
33761;DHT22;20084;47.912;19.044;2022-07-05T15:06:01;23.30;99.90
33761;DHT22;20084;47.912;19.044;2022-07-05T15:08:30;23.30;99.90
33761;DHT22;20084;47.912;19.044;2022-07-05T15:10:55;23.30;99.90
33761;DHT22;20084;47.912;19.044;2022-07-05T15:13:21;23.20;99.90
33761;DHT22;20084;47.912;19.044;2022-07-05T15:15:47;23.10;99.90
33761;DHT22;20084;47.912;19.044;2022-07-05T15:18:12;23.00;99.90
33761;DHT22;20084;47.912;19.044;2022-07-05T15:20:38;23.10;99.90
33761;DHT22;20084;47.912;19.044;2022-07-05T15:23:04;23.20;99.90
33761;DHT22;20084;47.912;19.044;2022-07-05T15:25:29;23.10;99.90
33761;DHT22;20084;47.912;19.044;2022-07-05T15:27:55;23.10;99.90
33761;DHT22;20084;47.912;19.044;2022-07-05T15:30:20;23.20;99.90
33761;DHT22;20084;47.912;19.044;2022-07-05T15:32:48;23.20;99.90
33761;DHT22;20084;47.912;19.044;2022-07-05T15:35:14;23.10;99.90
33761;DHT22;20084;47.912;19.044;2022-07-05T15:37:43;23.20;99.90
33761;DHT22;20084;47.912;19.044;2022-07-05T15:40:09;23.10;99.90